Time;durP1;ratioP1;P1;durP2;ratioP2;P2;SDS_P1;SDS_P2;PMS_P1;PMS_P2;Temp;Humidity;BMP_temperature;BMP_pressure;BME280_temperature;BME280_humidity;BME280_pressure;Samples;Min_cycle;Max_cycle;Signal;HPM_P1;HPM_P2
2021/12/19 00:00:20;;;;;;;;;;;21.70;53.80;;;;;;5097780;28;923;-36
2021/12/19 00:03:07;;;;;;;;;;;21.80;53.80;;;;;;5098116;28;1917;-37
2021/12/19 00:08:46;;;;;;;;;;;21.70;54.00;;;;;;5098505;28;644;-37
2021/12/19 00:11:15;;;;;;;;;;;21.60;54.00;;;;;;5098612;28;1122;-36
2021/12/19 00:13:41;;;;;;;;;;;21.60;54.10;;;;;;5098669;28;945;-37
2021/12/19 00:16:09;;;;;;;;;;;21.70;54.10;;;;;;5098344;28;920;-37
2021/12/19 00:18:35;;;;;;;;;;;21.60;54.10;;;;;;5098439;28;1018;-37
2021/12/19 00:21:03;;;;;;;;;;;21.60;54.20;;;;;;5098183;28;1988;-37
2021/12/19 00:23:30;;;;;;;;;;;21.60;54.20;;;;;;5098367;28;940;-37
2021/12/19 00:25:57;;;;;;;;;;;21.50;54.20;;;;;;5098724;28;992;-36
2021/12/19 00:28:26;;;;;;;;;;;21.50;54.20;;;;;;5098852;28;1000;-36
2021/12/19 00:30:53;;;;;;;;;;;21.50;54.30;;;;;;5098499;28;1802;-37
2021/12/19 00:33:19;;;;;;;;;;;21.50;54.30;;;;;;5098582;28;1007;-36
2021/12/19 00:35:46;;;;;;;;;;;21.50;54.30;;;;;;5098553;28;951;-36
2021/12/19 00:38:13;;;;;;;;;;;21.50;54.50;;;;;;5098401;28;944;-37
2021/12/19 00:40:40;;;;;;;;;;;21.50;54.40;;;;;;5098296;28;1160;-36
2021/12/19 00:43:10;;;;;;;;;;;21.50;54.40;;;;;;5098462;28;1984;-37
2021/12/19 00:45:40;;;;;;;;;;;21.50;54.40;;;;;;5098386;28;1003;-37
2021/12/19 00:48:10;;;;;;;;;;;21.50;55.60;;;;;;5098884;28;959;-37
2021/12/19 00:50:37;;;;;;;;;;;21.50;54.40;;;;;;5098373;28;1006;-36
2021/12/19 00:53:05;;;;;;;;;;;21.50;54.50;;;;;;5098667;28;1129;-39
2021/12/19 00:55:32;;;;;;;;;;;21.50;54.50;;;;;;5098446;28;975;-37
2021/12/19 00:57:59;;;;;;;;;;;21.50;54.50;;;;;;5098794;28;999;-37
2021/12/19 01:00:27;;;;;;;;;;;21.50;54.60;;;;;;5097998;28;1877;-36
2021/12/19 01:02:58;;;;;;;;;;;21.50;54.50;;;;;;5098443;28;1988;-36
2021/12/19 01:05:25;;;;;;;;;;;21.40;54.50;;;;;;5098274;28;1015;-36
2021/12/19 01:07:52;;;;;;;;;;;21.40;54.50;;;;;;5098487;28;997;-36
2021/12/19 01:10:19;;;;;;;;;;;21.40;54.50;;;;;;5098257;28;984;-36
2021/12/19 01:12:45;;;;;;;;;;;21.50;54.60;;;;;;5098488;28;1285;-37
2021/12/19 01:15:14;;;;;;;;;;;21.40;54.50;;;;;;5098069;28;988;-36
2021/12/19 01:17:41;;;;;;;;;;;21.40;54.60;;;;;;5098547;28;978;-37
2021/12/19 01:20:12;;;;;;;;;;;21.40;54.50;;;;;;5098304;28;945;-36
2021/12/19 01:22:38;;;;;;;;;;;21.40;54.50;;;;;;5098125;28;1882;-36
2021/12/19 01:25:05;;;;;;;;;;;21.50;54.60;;;;;;5098117;28;992;-36
2021/12/19 01:27:32;;;;;;;;;;;21.40;54.50;;;;;;5098560;28;1008;-37
2021/12/19 01:29:59;;;;;;;;;;;21.40;54.50;;;;;;5098248;28;952;-37
2021/12/19 01:32:26;;;;;;;;;;;21.40;54.40;;;;;;5098027;28;1012;-36
2021/12/19 01:34:52;;;;;;;;;;;21.50;54.50;;;;;;5098322;28;1031;-36
2021/12/19 01:37:21;;;;;;;;;;;21.40;54.40;;;;;;5100600;28;1022;-37
2021/12/19 01:39:47;;;;;;;;;;;21.40;55.70;;;;;;5101846;28;1011;-36
2021/12/19 01:42:17;;;;;;;;;;;21.40;54.40;;;;;;5102054;28;1925;-38
2021/12/19 01:44:44;;;;;;;;;;;21.40;54.60;;;;;;5101717;28;1032;-35
2021/12/19 01:47:11;;;;;;;;;;;21.40;54.60;;;;;;5101484;28;998;-35
2021/12/19 01:49:38;;;;;;;;;;;21.40;54.50;;;;;;5100839;28;1023;-36
2021/12/19 01:52:05;;;;;;;;;;;21.40;54.50;;;;;;5101167;28;884;-35
2021/12/19 01:54:33;;;;;;;;;;;21.40;54.50;;;;;;5100962;28;959;-35
2021/12/19 01:57:00;;;;;;;;;;;21.40;54.50;;;;;;5100951;28;1001;-35
2021/12/19 01:59:27;;;;;;;;;;;21.40;54.50;;;;;;5100992;28;976;-35
2021/12/19 02:01:54;;;;;;;;;;;21.40;54.50;;;;;;5100992;28;1975;-35
2021/12/19 02:04:23;;;;;;;;;;;21.40;54.60;;;;;;5099743;28;987;-35
2021/12/19 02:06:50;;;;;;;;;;;21.30;54.40;;;;;;5100198;28;998;-35
2021/12/19 02:09:17;;;;;;;;;;;21.40;54.50;;;;;;5100196;28;1016;-35
2021/12/19 02:11:45;;;;;;;;;;;21.40;54.50;;;;;;5100595;28;1087;-35
2021/12/19 02:14:12;;;;;;;;;;;21.40;54.60;;;;;;5100421;28;896;-36
2021/12/19 02:16:40;;;;;;;;;;;21.40;54.50;;;;;;5100145;28;1010;-35
2021/12/19 02:19:07;;;;;;;;;;;21.30;55.60;;;;;;5100738;28;868;-35
2021/12/19 02:21:36;;;;;;;;;;;21.30;54.40;;;;;;5100157;28;1902;-37
2021/12/19 02:24:06;;;;;;;;;;;21.40;54.60;;;;;;5100979;28;928;-37
2021/12/19 02:26:33;;;;;;;;;;;21.40;54.50;;;;;;5100753;28;1006;-35
2021/12/19 02:29:00;;;;;;;;;;;21.40;54.50;;;;;;5100532;28;936;-35
2021/12/19 02:31:28;;;;;;;;;;;21.30;54.50;;;;;;5100293;28;1030;-35
2021/12/19 02:34:02;;;;;;;;;;;21.40;54.50;;;;;;5100209;28;1165;-35
2021/12/19 02:36:42;;;;;;;;;;;21.30;54.30;;;;;;5100869;28;1018;-35
2021/12/19 02:39:35;;;;;;;;;;;21.30;54.40;;;;;;5100124;28;956;-33
2021/12/19 02:50:16;;;;;;;;;;;21.30;54.60;;;;;;5099618;28;685;-33
2021/12/19 02:52:42;;;;;;;;;;;21.30;54.60;;;;;;5100177;28;932;-33
2021/12/19 02:55:11;;;;;;;;;;;21.30;54.50;;;;;;5100011;28;972;-34
2021/12/19 02:57:39;;;;;;;;;;;21.30;54.50;;;;;;5100001;28;988;-34
2021/12/19 03:00:08;;;;;;;;;;;21.30;54.60;;;;;;5099392;28;1113;-33
2021/12/19 03:02:35;;;;;;;;;;;21.30;54.50;;;;;;5099727;28;1906;-34
2021/12/19 03:05:02;;;;;;;;;;;21.30;54.40;;;;;;5098318;28;896;-34
2021/12/19 03:07:30;;;;;;;;;;;21.30;54.50;;;;;;5099330;28;977;-34
2021/12/19 03:10:11;;;;;;;;;;;21.30;54.50;;;;;;5098886;28;888;-34
2021/12/19 03:12:54;;;;;;;;;;;21.30;54.60;;;;;;5098645;28;1014;-34
2021/12/19 03:18:05;;;;;;;;;;;21.30;54.60;;;;;;5068124;28;1086;-34
2021/12/19 03:20:32;;;;;;;;;;;21.30;54.50;;;;;;5099488;28;1767;-34
2021/12/19 03:22:59;;;;;;;;;;;21.30;54.50;;;;;;5099671;28;1898;-34
2021/12/19 03:25:27;;;;;;;;;;;21.30;54.50;;;;;;5099388;28;1039;-33
2021/12/19 03:28:02;;;;;;;;;;;21.30;54.60;;;;;;5099856;28;1040;-33
2021/12/19 03:30:29;;;;;;;;;;;21.30;54.50;;;;;;5098867;28;927;-33
2021/12/19 03:32:56;;;;;;;;;;;21.30;54.40;;;;;;5099746;28;1138;-33
2021/12/19 03:35:23;;;;;;;;;;;21.30;54.40;;;;;;5099053;28;1055;-33
2021/12/19 03:37:51;;;;;;;;;;;21.30;54.50;;;;;;5099783;28;975;-33
2021/12/19 03:40:22;;;;;;;;;;;21.30;54.50;;;;;;5098868;28;1026;-33
2021/12/19 03:42:50;;;;;;;;;;;21.30;54.50;;;;;;5099144;28;1902;-34
2021/12/19 03:45:21;;;;;;;;;;;21.30;54.50;;;;;;5099074;28;1016;-32
2021/12/19 03:47:48;;;;;;;;;;;21.30;54.50;;;;;;5099153;28;980;-33
2021/12/19 03:50:18;;;;;;;;;;;21.30;54.50;;;;;;5098860;28;1027;-33
2021/12/19 03:52:45;;;;;;;;;;;21.30;54.40;;;;;;5099159;28;995;-33
2021/12/19 03:55:12;;;;;;;;;;;21.30;54.40;;;;;;5099131;28;1023;-38
2021/12/19 03:57:39;;;;;;;;;;;21.30;54.30;;;;;;5099010;28;970;-37
2021/12/19 04:00:08;;;;;;;;;;;21.30;54.30;;;;;;5098287;28;963;-37
2021/12/19 04:02:37;;;;;;;;;;;21.30;54.50;;;;;;5099584;28;1898;-37
2021/12/19 04:05:04;;;;;;;;;;;21.30;54.40;;;;;;5099230;28;1222;-37
2021/12/19 04:07:30;;;;;;;;;;;21.30;54.40;;;;;;5098703;28;998;-36
2021/12/19 04:09:57;;;;;;;;;;;21.30;54.40;;;;;;5098931;28;948;-37
2021/12/19 04:12:27;;;;;;;;;;;21.30;54.50;;;;;;5098820;28;1166;-36
2021/12/19 04:14:54;;;;;;;;;;;21.20;54.30;;;;;;5098536;28;978;-35
2021/12/19 04:17:21;;;;;;;;;;;21.30;54.40;;;;;;5098398;28;983;-35
2021/12/19 04:19:49;;;;;;;;;;;21.20;54.40;;;;;;5098632;28;924;-35
2021/12/19 04:22:16;;;;;;;;;;;21.30;54.40;;;;;;5098346;28;1970;-35
2021/12/19 04:24:42;;;;;;;;;;;21.20;54.40;;;;;;5098280;28;987;-34
2021/12/19 04:27:09;;;;;;;;;;;21.20;54.40;;;;;;5099092;28;988;-34
2021/12/19 04:29:36;;;;;;;;;;;21.20;54.40;;;;;;5098733;28;999;-34
2021/12/19 04:32:03;;;;;;;;;;;21.30;54.30;;;;;;5098330;28;972;-34
2021/12/19 04:34:30;;;;;;;;;;;21.20;54.40;;;;;;5098530;28;1027;-34
2021/12/19 04:37:04;;;;;;;;;;;21.30;54.30;;;;;;5098725;28;1007;-35
2021/12/19 04:39:39;;;;;;;;;;;21.30;54.50;;;;;;5098858;28;1014;-34
2021/12/19 04:53:24;;;;;;;;;;;21.20;54.50;;;;;;5097846;28;977;-34
2021/12/19 05:01:32;;;;;;;;;;;21.20;54.40;;;;;;5087405;28;1691;-33
2021/12/19 05:04:10;;;;;;;;;;;21.20;54.40;;;;;;5098137;28;1898;-37
2021/12/19 05:14:01;;;;;;;;;;;21.20;54.40;;;;;;5098966;28;1074;-36
2021/12/19 05:15:24;;;;;;;;;;;21.20;54.40;;;;;;5039211;28;715;-36
2021/12/19 05:17:52;;;;;;;;;;;21.20;54.40;;;;;;5076922;28;1114;-36
2021/12/19 05:20:22;;;;;;;;;;;21.20;54.30;;;;;;5101525;28;888;-36
2021/12/19 05:22:52;;;;;;;;;;;21.20;54.40;;;;;;5102429;28;1984;-37
2021/12/19 05:25:20;;;;;;;;;;;21.20;54.30;;;;;;5101612;28;996;-36
2021/12/19 05:27:47;;;;;;;;;;;21.20;54.40;;;;;;5102183;28;980;-36
2021/12/19 05:30:15;;;;;;;;;;;21.20;54.30;;;;;;5101635;28;976;-37
2021/12/19 05:32:42;;;;;;;;;;;21.20;54.40;;;;;;5101991;28;925;-36
2021/12/19 05:35:11;;;;;;;;;;;21.20;54.30;;;;;;5101871;28;1019;-36
2021/12/19 05:45:52;;;;;;;;;;;21.20;54.30;;;;;;5100864;28;930;-32
2021/12/19 05:48:18;;;;;;;;;;;21.20;54.40;;;;;;5101212;28;948;-33
2021/12/19 05:50:45;;;;;;;;;;;21.20;54.30;;;;;;5100529;28;1015;-33
2021/12/19 05:53:12;;;;;;;;;;;21.20;54.40;;;;;;5100571;28;971;-33
2021/12/19 05:55:41;;;;;;;;;;;21.20;54.40;;;;;;5101419;28;952;-33
2021/12/19 05:58:08;;;;;;;;;;;21.20;54.40;;;;;;5101209;28;961;-33
2021/12/19 06:00:34;;;;;;;;;;;21.20;54.30;;;;;;5101362;28;925;-34
2021/12/19 06:03:04;;;;;;;;;;;21.20;54.40;;;;;;5100789;28;2165;-33
2021/12/19 06:05:30;;;;;;;;;;;21.20;54.40;;;;;;5100818;28;936;-33
2021/12/19 06:07:57;;;;;;;;;;;21.20;54.30;;;;;;5100683;28;1014;-34
2021/12/19 06:10:28;;;;;;;;;;;21.20;54.40;;;;;;5100637;28;1007;-34
2021/12/19 06:12:57;;;;;;;;;;;21.20;54.30;;;;;;5100365;28;1289;-35
2021/12/19 06:15:24;;;;;;;;;;;21.20;54.40;;;;;;5100879;28;951;-34
2021/12/19 06:17:52;;;;;;;;;;;21.20;54.30;;;;;;5100634;28;963;-34
2021/12/19 06:20:19;;;;;;;;;;;21.10;54.40;;;;;;5100572;28;972;-35
2021/12/19 06:22:46;;;;;;;;;;;21.20;54.40;;;;;;5099674;28;1980;-35
2021/12/19 06:25:12;;;;;;;;;;;21.20;54.40;;;;;;5100502;28;1835;-34
2021/12/19 06:27:39;;;;;;;;;;;21.20;54.40;;;;;;5100260;28;999;-34
2021/12/19 06:30:08;;;;;;;;;;;21.10;54.20;;;;;;5099948;28;876;-34
2021/12/19 06:32:35;;;;;;;;;;;21.20;54.20;;;;;;5099863;28;935;-34
2021/12/19 06:35:06;;;;;;;;;;;21.10;54.20;;;;;;5100059;28;1011;-35
2021/12/19 06:37:35;;;;;;;;;;;21.20;54.30;;;;;;5100080;28;980;-35
2021/12/19 06:40:02;;;;;;;;;;;21.10;54.20;;;;;;5099741;28;1250;-34
2021/12/19 06:42:29;;;;;;;;;;;21.10;54.30;;;;;;5099250;28;1080;-35
2021/12/19 06:44:56;;;;;;;;;;;21.10;54.30;;;;;;5100152;28;1910;-35
2021/12/19 06:47:24;;;;;;;;;;;21.10;54.20;;;;;;5100186;28;1022;-35
2021/12/19 06:49:51;;;;;;;;;;;21.10;54.30;;;;;;5099691;28;940;-35
2021/12/19 06:52:17;;;;;;;;;;;21.10;54.30;;;;;;5099897;28;988;-35
2021/12/19 06:54:44;;;;;;;;;;;21.10;54.30;;;;;;5099465;28;1039;-35
2021/12/19 06:57:11;;;;;;;;;;;21.10;54.30;;;;;;5100030;28;1046;-35
2021/12/19 06:59:38;;;;;;;;;;;21.20;54.20;;;;;;5099913;28;967;-35
2021/12/19 07:02:04;;;;;;;;;;;21.10;54.20;;;;;;5099736;28;948;-35
2021/12/19 07:04:33;;;;;;;;;;;21.10;54.20;;;;;;5099460;28;1905;-35
2021/12/19 07:06:59;;;;;;;;;;;21.10;54.20;;;;;;5099505;28;960;-35
2021/12/19 07:09:26;;;;;;;;;;;21.10;54.30;;;;;;5099859;28;960;-35
2021/12/19 07:11:53;;;;;;;;;;;21.20;54.30;;;;;;5099559;28;1185;-35
2021/12/19 07:14:20;;;;;;;;;;;21.10;54.30;;;;;;5099527;28;1004;-35
2021/12/19 07:16:46;;;;;;;;;;;21.10;54.20;;;;;;5099172;28;963;-35
2021/12/19 07:19:13;;;;;;;;;;;21.10;54.10;;;;;;5099231;28;973;-35
2021/12/19 07:21:41;;;;;;;;;;;21.10;54.20;;;;;;5099261;28;952;-35
2021/12/19 07:24:08;;;;;;;;;;;21.20;54.10;;;;;;5099611;28;1909;-35
2021/12/19 07:26:35;;;;;;;;;;;21.20;54.20;;;;;;5099025;28;1018;-35
2021/12/19 07:29:01;;;;;;;;;;;21.10;54.20;;;;;;5098857;28;994;-36
2021/12/19 07:31:29;;;;;;;;;;;21.20;54.20;;;;;;5098669;28;976;-34
2021/12/19 07:33:57;;;;;;;;;;;21.20;54.30;;;;;;5098192;28;944;-34
2021/12/19 07:36:25;;;;;;;;;;;21.20;54.30;;;;;;5098760;28;965;-34
2021/12/19 07:39:00;;;;;;;;;;;21.20;54.20;;;;;;5098836;28;949;-34
2021/12/19 07:41:26;;;;;;;;;;;21.20;54.20;;;;;;5097862;28;968;-34
2021/12/19 07:43:53;;;;;;;;;;;21.20;54.20;;;;;;5098362;28;1995;-34
2021/12/19 07:46:20;;;;;;;;;;;21.20;54.20;;;;;;5098192;28;1018;-34
2021/12/19 07:48:46;;;;;;;;;;;21.20;54.20;;;;;;5098550;28;971;-34
2021/12/19 07:51:13;;;;;;;;;;;21.20;54.30;;;;;;5098148;28;1014;-34
2021/12/19 07:53:40;;;;;;;;;;;21.20;54.30;;;;;;5098132;28;964;-34
2021/12/19 07:56:08;;;;;;;;;;;21.20;54.30;;;;;;5098263;28;1062;-34
2021/12/19 07:58:35;;;;;;;;;;;21.20;54.20;;;;;;5098071;28;988;-34
2021/12/19 08:01:02;;;;;;;;;;;21.20;54.20;;;;;;5097715;28;929;-34
2021/12/19 08:03:28;;;;;;;;;;;21.20;54.20;;;;;;5097796;28;1894;-34
2021/12/19 08:05:55;;;;;;;;;;;21.20;54.30;;;;;;5097730;28;1027;-34
2021/12/19 08:08:26;;;;;;;;;;;21.30;54.20;;;;;;5098532;28;979;-35
2021/12/19 08:13:47;;;;;;;;;;;21.30;54.10;;;;;;5061717;28;1104;-34
2021/12/19 08:16:14;;;;;;;;;;;21.40;54.10;;;;;;5097893;28;1011;-34
2021/12/19 08:18:41;;;;;;;;;;;21.50;54.10;;;;;;5098484;28;999;-34
2021/12/19 08:21:07;;;;;;;;;;;21.50;53.90;;;;;;5097627;28;1107;-34
2021/12/19 08:23:36;;;;;;;;;;;21.60;53.90;;;;;;5098035;28;1981;-33
2021/12/19 08:26:02;;;;;;;;;;;21.70;53.80;;;;;;5097570;28;913;-34
2021/12/19 08:28:29;;;;;;;;;;;21.70;53.70;;;;;;5097582;28;975;-34
2021/12/19 08:30:57;;;;;;;;;;;21.70;53.70;;;;;;5097807;28;983;-33
2021/12/19 08:33:24;;;;;;;;;;;21.70;53.70;;;;;;5097226;28;1327;-35
2021/12/19 08:35:51;;;;;;;;;;;21.80;53.70;;;;;;5097514;28;959;-34
2021/12/19 08:38:17;;;;;;;;;;;21.90;53.70;;;;;;5097461;28;1012;-34
2021/12/19 08:40:46;;;;;;;;;;;21.90;53.60;;;;;;5097344;28;1043;-33
2021/12/19 08:43:13;;;;;;;;;;;21.80;53.60;;;;;;5097664;28;1902;-34
2021/12/19 08:45:40;;;;;;;;;;;21.80;53.70;;;;;;5098820;28;920;-34
2021/12/19 08:48:08;;;;;;;;;;;21.80;53.70;;;;;;5101390;28;1007;-34
2021/12/19 08:50:35;;;;;;;;;;;21.80;53.70;;;;;;5100991;28;972;-33
2021/12/19 08:53:01;;;;;;;;;;;21.80;53.70;;;;;;5101236;28;969;-33
2021/12/19 08:55:28;;;;;;;;;;;21.80;53.80;;;;;;5101162;28;956;-34
2021/12/19 08:57:55;;;;;;;;;;;21.80;53.80;;;;;;5101085;28;972;-34
2021/12/19 09:00:22;;;;;;;;;;;21.80;53.90;;;;;;5101067;28;944;-34
2021/12/19 09:02:51;;;;;;;;;;;21.80;53.80;;;;;;5101007;28;1010;-34
2021/12/19 09:05:20;;;;;;;;;;;21.80;53.90;;;;;;5101580;28;1902;-35
2021/12/19 09:07:46;;;;;;;;;;;21.80;53.80;;;;;;5101014;28;1034;-33
2021/12/19 09:10:13;;;;;;;;;;;21.80;53.80;;;;;;5101199;28;1019;-34
2021/12/19 09:12:40;;;;;;;;;;;21.80;53.80;;;;;;5100386;28;1174;-34
2021/12/19 09:15:07;;;;;;;;;;;21.80;53.90;;;;;;5100454;28;1038;-34
2021/12/19 09:17:34;;;;;;;;;;;21.80;53.90;;;;;;5100626;28;1042;-34
2021/12/19 09:20:00;;;;;;;;;;;21.80;53.90;;;;;;5100119;28;1111;-34
2021/12/19 09:22:28;;;;;;;;;;;21.80;53.70;;;;;;5100770;28;1007;-34
2021/12/19 09:24:55;;;;;;;;;;;21.80;53.80;;;;;;5098606;28;1918;-34
2021/12/19 09:27:22;;;;;;;;;;;21.80;53.80;;;;;;5100223;28;996;-34
2021/12/19 09:29:49;;;;;;;;;;;21.90;53.80;;;;;;5099989;28;995;-36
2021/12/19 09:32:15;;;;;;;;;;;21.80;53.70;;;;;;5099174;28;932;-33
2021/12/19 09:34:42;;;;;;;;;;;21.80;53.80;;;;;;5099558;28;940;-34
2021/12/19 09:37:09;;;;;;;;;;;21.80;53.70;;;;;;5099050;28;1019;-34
2021/12/19 09:39:37;;;;;;;;;;;21.80;53.70;;;;;;5099981;28;980;-34
2021/12/19 09:42:09;;;;;;;;;;;21.80;53.70;;;;;;5099809;28;991;-34
2021/12/19 09:44:36;;;;;;;;;;;21.80;53.70;;;;;;5099830;28;1910;-34
2021/12/19 09:47:04;;;;;;;;;;;21.80;53.80;;;;;;5099565;28;951;-34
2021/12/19 09:49:33;;;;;;;;;;;21.80;53.70;;;;;;5099549;28;944;-34
2021/12/19 09:52:01;;;;;;;;;;;21.80;53.70;;;;;;5098746;28;924;-35
2021/12/19 09:54:28;;;;;;;;;;;21.80;53.70;;;;;;5099329;28;1022;-34
2021/12/19 09:56:56;;;;;;;;;;;21.80;53.80;;;;;;5097667;28;1046;-34
2021/12/19 09:59:23;;;;;;;;;;;21.80;53.80;;;;;;5099771;28;848;-34
2021/12/19 10:01:51;;;;;;;;;;;21.80;53.80;;;;;;5097885;28;983;-34
2021/12/19 10:04:33;;;;;;;;;;;21.70;53.70;;;;;;5099341;28;1979;-35
2021/12/19 10:07:04;;;;;;;;;;;21.70;53.60;;;;;;5098990;28;900;-33
2021/12/19 10:09:31;;;;;;;;;;;21.80;53.80;;;;;;5098928;28;1036;-34
2021/12/19 10:12:23;;;;;;;;;;;21.70;53.80;;;;;;5098258;28;1087;-34
2021/12/19 10:14:49;;;;;;;;;;;21.70;53.80;;;;;;5099393;28;1030;-34
2021/12/19 10:17:17;;;;;;;;;;;21.80;53.90;;;;;;5098718;28;935;-34
2021/12/19 10:19:45;;;;;;;;;;;21.60;51.40;;;;;;5098126;28;1142;-35
2021/12/19 10:22:26;;;;;;;;;;;21.40;50.50;;;;;;5098157;28;980;-34
2021/12/19 10:24:53;;;;;;;;;;;21.20;49.60;;;;;;5094404;28;1902;-35
2021/12/19 10:27:35;;;;;;;;;;;20.90;48.70;;;;;;5098090;28;1020;-34
2021/12/19 10:30:02;;;;;;;;;;;20.70;48.60;;;;;;5097474;28;1087;-34
2021/12/19 10:32:29;;;;;;;;;;;20.70;48.30;;;;;;5098116;28;1004;-34
2021/12/19 10:35:15;;;;;;;;;;;20.50;47.80;;;;;;5098856;28;1024;-34
2021/12/19 10:37:42;;;;;;;;;;;20.30;47.20;;;;;;5098527;28;982;-35
2021/12/19 10:40:09;;;;;;;;;;;20.20;48.20;;;;;;5098236;28;1015;-34
2021/12/19 10:42:45;;;;;;;;;;;20.10;48.10;;;;;;5098725;28;961;-34
2021/12/19 10:48:08;;;;;;;;;;;20.50;50.00;;;;;;5098539;28;923;-33
2021/12/19 10:50:45;;;;;;;;;;;20.70;50.90;;;;;;5098981;28;979;-33
2021/12/19 10:53:13;;;;;;;;;;;20.90;50.70;;;;;;5098837;28;984;-34
2021/12/19 10:55:43;;;;;;;;;;;21.10;50.40;;;;;;5099420;28;1011;-33
2021/12/19 10:58:25;;;;;;;;;;;21.20;50.60;;;;;;5098998;28;1000;-33
2021/12/19 11:00:56;;;;;;;;;;;21.30;50.80;;;;;;5099490;28;1000;-33
2021/12/19 11:03:33;;;;;;;;;;;21.40;50.90;;;;;;5098966;28;924;-33
2021/12/19 11:06:00;;;;;;;;;;;21.40;51.00;;;;;;5098822;28;1975;-33
2021/12/19 11:08:31;;;;;;;;;;;21.50;51.10;;;;;;5098792;28;1010;-33
2021/12/19 11:10:58;;;;;;;;;;;21.60;51.50;;;;;;5098653;28;1614;-38
2021/12/19 11:13:26;;;;;;;;;;;21.60;51.30;;;;;;5098078;28;1036;-38
2021/12/19 11:15:53;;;;;;;;;;;21.80;51.10;;;;;;5097656;28;932;-37
2021/12/19 11:18:20;;;;;;;;;;;22.00;50.90;;;;;;5097948;28;1035;-39
2021/12/19 11:20:46;;;;;;;;;;;22.20;50.40;;;;;;5097415;28;973;-38
2021/12/19 11:23:13;;;;;;;;;;;22.30;50.00;;;;;;5097905;28;1005;-35
2021/12/19 11:25:40;;;;;;;;;;;22.40;50.10;;;;;;5096352;28;1910;-33
2021/12/19 11:28:07;;;;;;;;;;;22.50;49.60;;;;;;5098512;28;1043;-31
2021/12/19 11:30:35;;;;;;;;;;;22.60;49.30;;;;;;5098799;28;995;-34
2021/12/19 11:33:10;;;;;;;;;;;22.70;49.30;;;;;;5098062;28;1329;-33
2021/12/19 11:35:38;;;;;;;;;;;22.60;49.40;;;;;;5098728;28;995;-35
2021/12/19 11:38:07;;;;;;;;;;;22.50;49.60;;;;;;5098016;28;1075;-34
2021/12/19 11:40:36;;;;;;;;;;;22.40;49.90;;;;;;5098121;28;882;-33
2021/12/19 11:43:04;;;;;;;;;;;22.30;50.20;;;;;;5098432;28;1024;-35
2021/12/19 11:45:35;;;;;;;;;;;22.20;50.50;;;;;;5096385;28;1906;-35
2021/12/19 11:48:08;;;;;;;;;;;22.10;50.60;;;;;;5097461;28;1793;-34
2021/12/19 11:50:36;;;;;;;;;;;22.00;50.80;;;;;;5097964;28;921;-33
2021/12/19 11:53:18;;;;;;;;;;;22.00;51.00;;;;;;5097226;28;1000;-34
2021/12/19 11:55:46;;;;;;;;;;;22.00;51.20;;;;;;5096754;28;1879;-34
2021/12/19 11:58:31;;;;;;;;;;;21.90;51.30;;;;;;5096964;28;1096;-34
2021/12/19 12:00:59;;;;;;;;;;;21.90;51.50;;;;;;5098182;28;948;-32
2021/12/19 12:03:29;;;;;;;;;;;21.90;51.60;;;;;;5097444;28;1008;-34
2021/12/19 12:06:11;;;;;;;;;;;21.90;51.80;;;;;;5097552;28;1901;-33
2021/12/19 12:08:38;;;;;;;;;;;21.90;51.70;;;;;;5098243;28;1548;-35
2021/12/19 12:11:12;;;;;;;;;;;21.90;51.70;;;;;;5097911;28;1042;-31
2021/12/19 12:13:41;;;;;;;;;;;21.80;51.70;;;;;;5097803;28;1002;-31
2021/12/19 12:16:26;;;;;;;;;;;21.80;51.80;;;;;;5097263;28;937;-35
2021/12/19 12:18:56;;;;;;;;;;;21.90;51.80;;;;;;5097626;28;1888;-35
2021/12/19 12:21:29;;;;;;;;;;;21.90;51.80;;;;;;5097248;28;1096;-36
2021/12/19 12:23:58;;;;;;;;;;;21.70;52.00;;;;;;5097124;28;1022;-33
2021/12/19 12:26:27;;;;;;;;;;;21.80;52.10;;;;;;5097568;28;1910;-34
2021/12/19 12:28:54;;;;;;;;;;;21.70;52.10;;;;;;5097642;28;965;-33
2021/12/19 12:31:21;;;;;;;;;;;21.70;52.10;;;;;;5095895;28;1024;-33
2021/12/19 12:33:48;;;;;;;;;;;21.70;52.20;;;;;;5096821;28;973;-35
2021/12/19 12:36:17;;;;;;;;;;;21.70;52.30;;;;;;5096619;28;936;-34
2021/12/19 12:38:46;;;;;;;;;;;21.60;52.20;;;;;;5096478;28;1004;-34
2021/12/19 12:41:27;;;;;;;;;;;21.70;52.30;;;;;;5096460;28;987;-33
2021/12/19 12:43:54;;;;;;;;;;;21.80;52.50;;;;;;5096302;28;953;-34
2021/12/19 12:46:22;;;;;;;;;;;21.90;52.20;;;;;;5095917;28;1985;-34
2021/12/19 12:48:53;;;;;;;;;;;22.10;51.90;;;;;;5097227;28;1817;-34
2021/12/19 12:51:27;;;;;;;;;;;22.20;51.20;;;;;;5096360;28;940;-33
2021/12/19 12:53:55;;;;;;;;;;;22.40;50.90;;;;;;5096421;28;941;-33
2021/12/19 12:56:23;;;;;;;;;;;22.60;50.60;;;;;;5096721;28;1019;-35
2021/12/19 12:58:52;;;;;;;;;;;22.80;50.20;;;;;;5097358;28;904;-34
2021/12/19 13:01:30;;;;;;;;;;;22.90;49.90;;;;;;5097518;28;1191;-34
2021/12/19 13:03:58;;;;;;;;;;;23.00;49.80;;;;;;5096051;28;936;-33
2021/12/19 13:06:43;;;;;;;;;;;23.00;49.50;;;;;;5096128;28;1914;-34
2021/12/19 13:09:14;;;;;;;;;;;23.10;49.50;;;;;;5097674;28;975;-35
2021/12/19 13:11:41;;;;;;;;;;;23.20;49.50;;;;;;5097208;28;1504;-35
2021/12/19 13:14:15;;;;;;;;;;;23.10;49.20;;;;;;5097311;28;1008;-33
2021/12/19 13:16:42;;;;;;;;;;;23.10;49.30;;;;;;5096878;28;997;-34
2021/12/19 13:19:09;;;;;;;;;;;23.20;49.20;;;;;;5097108;28;1173;-35
2021/12/19 13:21:51;;;;;;;;;;;23.20;49.20;;;;;;5096811;28;1010;-36
2021/12/19 13:24:22;;;;;;;;;;;23.30;49.60;;;;;;5096615;28;1135;-37
2021/12/19 13:26:48;;;;;;;;;;;23.20;49.20;;;;;;5096993;28;1902;-36
2021/12/19 13:29:19;;;;;;;;;;;23.20;49.20;;;;;;5095134;28;893;-36
2021/12/19 13:31:45;;;;;;;;;;;23.10;49.30;;;;;;5095830;28;1043;-37
2021/12/19 13:34:13;;;;;;;;;;;23.00;49.40;;;;;;5099739;28;1018;-37
2021/12/19 13:36:40;;;;;;;;;;;23.00;49.80;;;;;;5099457;28;981;-37
2021/12/19 13:39:17;;;;;;;;;;;23.10;49.60;;;;;;5099454;28;975;-36
2021/12/19 13:41:45;;;;;;;;;;;23.00;49.80;;;;;;5099403;28;948;-36
2021/12/19 13:44:12;;;;;;;;;;;23.00;49.80;;;;;;5098754;28;1047;-36
2021/12/19 13:46:39;;;;;;;;;;;23.00;49.90;;;;;;5098359;28;1901;-37
2021/12/19 13:49:06;;;;;;;;;;;23.10;50.20;;;;;;5098457;28;998;-37
2021/12/19 13:51:34;;;;;;;;;;;23.00;50.10;;;;;;5098945;28;937;-36
2021/12/19 13:54:02;;;;;;;;;;;23.00;50.30;;;;;;5099539;28;1166;-37
2021/12/19 13:56:29;;;;;;;;;;;23.00;50.50;;;;;;5098234;28;1019;-36
2021/12/19 13:59:00;;;;;;;;;;;22.90;50.50;;;;;;5098865;28;1031;-37
2021/12/19 14:01:28;;;;;;;;;;;22.90;50.60;;;;;;5097710;28;1007;-38
2021/12/19 14:03:58;;;;;;;;;;;22.80;50.80;;;;;;5098329;28;1028;-38
2021/12/19 14:06:25;;;;;;;;;;;22.90;50.90;;;;;;5098307;28;2061;-37
2021/12/19 14:08:53;;;;;;;;;;;22.80;51.00;;;;;;5098869;28;1103;-38
2021/12/19 14:11:21;;;;;;;;;;;22.80;52.20;;;;;;5099201;28;1245;-41
2021/12/19 14:14:06;;;;;;;;;;;22.80;51.40;;;;;;5098837;28;915;-38
2021/12/19 14:16:37;;;;;;;;;;;22.80;51.70;;;;;;5099491;28;957;-38
2021/12/19 14:19:16;;;;;;;;;;;22.80;51.50;;;;;;5098031;28;1151;-37
2021/12/19 14:21:42;;;;;;;;;;;22.70;51.60;;;;;;5099129;28;1047;-39
2021/12/19 14:24:24;;;;;;;;;;;22.70;51.70;;;;;;5098818;28;1001;-38
2021/12/19 14:26:53;;;;;;;;;;;22.70;51.70;;;;;;5097881;28;1906;-37
2021/12/19 14:29:25;;;;;;;;;;;22.70;51.70;;;;;;5098026;28;935;-37
2021/12/19 14:31:53;;;;;;;;;;;22.70;51.80;;;;;;5098296;28;1005;-38
2021/12/19 14:34:21;;;;;;;;;;;22.70;51.80;;;;;;5098354;28;947;-38
2021/12/19 14:36:48;;;;;;;;;;;22.70;52.00;;;;;;5097679;28;992;-38
2021/12/19 14:39:19;;;;;;;;;;;22.70;52.00;;;;;;5098016;28;973;-37
2021/12/19 14:41:46;;;;;;;;;;;22.60;52.00;;;;;;5098727;28;948;-37
2021/12/19 14:44:20;;;;;;;;;;;22.60;52.10;;;;;;5097114;28;1023;-37
2021/12/19 14:46:49;;;;;;;;;;;22.60;52.20;;;;;;5097931;28;1981;-38
2021/12/19 14:49:15;;;;;;;;;;;22.60;52.30;;;;;;5097946;28;1060;-38
2021/12/19 14:51:42;;;;;;;;;;;22.60;52.50;;;;;;5097786;28;975;-37
2021/12/19 14:54:09;;;;;;;;;;;22.60;52.60;;;;;;5098260;28;923;-38
2021/12/19 14:56:36;;;;;;;;;;;22.50;52.50;;;;;;5097297;28;950;-39
2021/12/19 14:59:04;;;;;;;;;;;22.50;52.50;;;;;;5097637;28;1038;-41
2021/12/19 15:01:31;;;;;;;;;;;22.50;52.80;;;;;;5097477;28;980;-38
2021/12/19 15:04:00;;;;;;;;;;;22.50;52.90;;;;;;5097099;28;1459;-36
2021/12/19 15:06:30;;;;;;;;;;;22.60;53.10;;;;;;5097621;28;1914;-39
2021/12/19 15:08:57;;;;;;;;;;;22.50;52.70;;;;;;5098051;28;892;-37
2021/12/19 15:11:24;;;;;;;;;;;22.50;53.10;;;;;;5098326;28;1047;-37
2021/12/19 15:13:51;;;;;;;;;;;22.60;52.60;;;;;;5098217;28;948;-38
2021/12/19 15:16:19;;;;;;;;;;;22.70;52.30;;;;;;5098265;28;952;-38
2021/12/19 15:18:46;;;;;;;;;;;22.70;52.10;;;;;;5097464;28;1015;-38
2021/12/19 15:21:15;;;;;;;;;;;22.80;51.70;;;;;;5096968;28;916;-37
2021/12/19 15:23:43;;;;;;;;;;;23.00;51.50;;;;;;5097476;28;1007;-37
2021/12/19 15:26:14;;;;;;;;;;;23.10;51.30;;;;;;5097226;28;1905;-37
2021/12/19 15:28:41;;;;;;;;;;;23.10;51.00;;;;;;5096550;28;1006;-37
2021/12/19 15:31:08;;;;;;;;;;;23.30;50.90;;;;;;5097069;28;873;-37
2021/12/19 15:33:35;;;;;;;;;;;23.30;50.80;;;;;;5096317;28;1038;-38
2021/12/19 15:36:02;;;;;;;;;;;23.30;51.10;;;;;;5096168;28;998;-36